sensor_id;sensor_type;location;lat;lon;timestamp;pressure;altitude;pressure_sealevel;temperature
12061;BMP180;6091;51.432;6.880;2023-11-19T00:00:16;100144.00;;;24.10
12061;BMP180;6091;51.432;6.880;2023-11-19T00:02:44;100155.00;;;24.10
12061;BMP180;6091;51.432;6.880;2023-11-19T00:05:11;100158.00;;;24.10
12061;BMP180;6091;51.432;6.880;2023-11-19T00:07:40;100167.00;;;24.10
12061;BMP180;6091;51.432;6.880;2023-11-19T00:10:15;100181.00;;;24.10
12061;BMP180;6091;51.432;6.880;2023-11-19T00:12:47;100181.00;;;24.00
12061;BMP180;6091;51.432;6.880;2023-11-19T00:15:17;100177.00;;;24.00
12061;BMP180;6091;51.432;6.880;2023-11-19T00:17:47;100178.00;;;24.00
12061;BMP180;6091;51.432;6.880;2023-11-19T00:20:18;100184.00;;;24.00
12061;BMP180;6091;51.432;6.880;2023-11-19T00:22:46;100174.00;;;24.00
12061;BMP180;6091;51.432;6.880;2023-11-19T00:25:17;100173.00;;;24.00
12061;BMP180;6091;51.432;6.880;2023-11-19T00:27:45;100178.00;;;23.90
12061;BMP180;6091;51.432;6.880;2023-11-19T00:30:13;100187.00;;;23.90
12061;BMP180;6091;51.432;6.880;2023-11-19T00:32:41;100181.00;;;23.90
12061;BMP180;6091;51.432;6.880;2023-11-19T00:35:09;100166.00;;;23.90
12061;BMP180;6091;51.432;6.880;2023-11-19T00:37:42;100160.00;;;23.90
12061;BMP180;6091;51.432;6.880;2023-11-19T00:40:16;100157.00;;;23.90
12061;BMP180;6091;51.432;6.880;2023-11-19T00:42:45;100154.00;;;23.90
12061;BMP180;6091;51.432;6.880;2023-11-19T00:45:13;100152.00;;;23.90
12061;BMP180;6091;51.432;6.880;2023-11-19T00:47:41;100154.00;;;23.80
12061;BMP180;6091;51.432;6.880;2023-11-19T00:50:09;100149.00;;;23.80
12061;BMP180;6091;51.432;6.880;2023-11-19T00:52:37;100143.00;;;23.80
12061;BMP180;6091;51.432;6.880;2023-11-19T00:55:05;100137.00;;;23.80
12061;BMP180;6091;51.432;6.880;2023-11-19T00:57:34;100132.00;;;23.80
12061;BMP180;6091;51.432;6.880;2023-11-19T01:00:01;100137.00;;;23.80
12061;BMP180;6091;51.432;6.880;2023-11-19T01:02:30;100135.00;;;23.80
12061;BMP180;6091;51.432;6.880;2023-11-19T01:04:57;100128.00;;;23.80
12061;BMP180;6091;51.432;6.880;2023-11-19T01:07:24;100134.00;;;23.80
12061;BMP180;6091;51.432;6.880;2023-11-19T01:09:53;100135.00;;;23.80
12061;BMP180;6091;51.432;6.880;2023-11-19T01:12:21;100132.00;;;23.80
12061;BMP180;6091;51.432;6.880;2023-11-19T01:14:48;100125.00;;;23.80
12061;BMP180;6091;51.432;6.880;2023-11-19T01:17:15;100135.00;;;23.70
12061;BMP180;6091;51.432;6.880;2023-11-19T01:19:43;100127.00;;;23.70
12061;BMP180;6091;51.432;6.880;2023-11-19T01:22:13;100134.00;;;23.70
12061;BMP180;6091;51.432;6.880;2023-11-19T01:24:40;100134.00;;;23.70
12061;BMP180;6091;51.432;6.880;2023-11-19T01:27:07;100139.00;;;23.70
12061;BMP180;6091;51.432;6.880;2023-11-19T01:29:35;100142.00;;;23.70
12061;BMP180;6091;51.432;6.880;2023-11-19T01:32:05;100145.00;;;23.70
12061;BMP180;6091;51.432;6.880;2023-11-19T01:34:32;100129.00;;;23.70
12061;BMP180;6091;51.432;6.880;2023-11-19T01:36:59;100145.00;;;23.70
12061;BMP180;6091;51.432;6.880;2023-11-19T01:39:27;100146.00;;;23.70
12061;BMP180;6091;51.432;6.880;2023-11-19T01:41:54;100136.00;;;23.70
12061;BMP180;6091;51.432;6.880;2023-11-19T01:44:21;100144.00;;;23.70
12061;BMP180;6091;51.432;6.880;2023-11-19T01:46:49;100134.00;;;23.70
12061;BMP180;6091;51.432;6.880;2023-11-19T01:49:18;100128.00;;;23.70
12061;BMP180;6091;51.432;6.880;2023-11-19T01:51:48;100121.00;;;23.70
12061;BMP180;6091;51.432;6.880;2023-11-19T01:54:15;100141.00;;;23.70
12061;BMP180;6091;51.432;6.880;2023-11-19T01:56:43;100132.00;;;23.70
12061;BMP180;6091;51.432;6.880;2023-11-19T01:59:12;100131.00;;;23.60
12061;BMP180;6091;51.432;6.880;2023-11-19T02:01:41;100122.00;;;23.70
12061;BMP180;6091;51.432;6.880;2023-11-19T02:04:11;100118.00;;;23.60
12061;BMP180;6091;51.432;6.880;2023-11-19T02:06:41;100126.00;;;23.60
12061;BMP180;6091;51.432;6.880;2023-11-19T02:09:09;100116.00;;;23.60
12061;BMP180;6091;51.432;6.880;2023-11-19T02:11:40;100101.00;;;23.60
12061;BMP180;6091;51.432;6.880;2023-11-19T02:14:07;100088.00;;;23.60
12061;BMP180;6091;51.432;6.880;2023-11-19T02:16:34;100082.00;;;23.60
12061;BMP180;6091;51.432;6.880;2023-11-19T02:19:02;100077.00;;;23.60
12061;BMP180;6091;51.432;6.880;2023-11-19T02:21:29;100068.00;;;23.60
12061;BMP180;6091;51.432;6.880;2023-11-19T02:23:56;100070.00;;;23.60
12061;BMP180;6091;51.432;6.880;2023-11-19T02:26:51;100073.00;;;23.60
12061;BMP180;6091;51.432;6.880;2023-11-19T02:29:23;100070.00;;;23.60
12061;BMP180;6091;51.432;6.880;2023-11-19T02:31:50;100070.00;;;23.60
12061;BMP180;6091;51.432;6.880;2023-11-19T02:34:17;100075.00;;;23.60
12061;BMP180;6091;51.432;6.880;2023-11-19T02:36:44;100078.00;;;23.60
12061;BMP180;6091;51.432;6.880;2023-11-19T02:39:13;100077.00;;;23.60
12061;BMP180;6091;51.432;6.880;2023-11-19T02:41:40;100076.00;;;23.60
12061;BMP180;6091;51.432;6.880;2023-11-19T02:44:07;100076.00;;;23.60
12061;BMP180;6091;51.432;6.880;2023-11-19T02:46:34;100068.00;;;23.60
12061;BMP180;6091;51.432;6.880;2023-11-19T02:49:02;100070.00;;;23.60
12061;BMP180;6091;51.432;6.880;2023-11-19T02:51:29;100069.00;;;23.60
12061;BMP180;6091;51.432;6.880;2023-11-19T02:53:57;100065.00;;;23.50
12061;BMP180;6091;51.432;6.880;2023-11-19T02:56:25;100061.00;;;23.50
12061;BMP180;6091;51.432;6.880;2023-11-19T02:58:53;100061.00;;;23.50
12061;BMP180;6091;51.432;6.880;2023-11-19T03:01:24;100061.00;;;23.50
12061;BMP180;6091;51.432;6.880;2023-11-19T03:04:01;100062.00;;;23.50
12061;BMP180;6091;51.432;6.880;2023-11-19T03:06:30;100055.00;;;23.50
12061;BMP180;6091;51.432;6.880;2023-11-19T03:08:58;100046.00;;;23.50
12061;BMP180;6091;51.432;6.880;2023-11-19T03:11:29;100049.00;;;23.50
12061;BMP180;6091;51.432;6.880;2023-11-19T03:13:57;100045.00;;;23.50
12061;BMP180;6091;51.432;6.880;2023-11-19T03:16:26;100050.00;;;23.50
12061;BMP180;6091;51.432;6.880;2023-11-19T03:18:54;100036.00;;;23.50
12061;BMP180;6091;51.432;6.880;2023-11-19T03:21:30;100033.00;;;23.50
12061;BMP180;6091;51.432;6.880;2023-11-19T03:23:58;100052.00;;;23.50
12061;BMP180;6091;51.432;6.880;2023-11-19T03:26:28;100043.00;;;23.50
12061;BMP180;6091;51.432;6.880;2023-11-19T03:28:57;100064.00;;;23.50
12061;BMP180;6091;51.432;6.880;2023-11-19T03:31:24;100058.00;;;23.50
12061;BMP180;6091;51.432;6.880;2023-11-19T03:33:52;100057.00;;;23.50
12061;BMP180;6091;51.432;6.880;2023-11-19T03:36:21;100057.00;;;23.50
12061;BMP180;6091;51.432;6.880;2023-11-19T03:38:48;100057.00;;;23.50
12061;BMP180;6091;51.432;6.880;2023-11-19T03:41:15;100057.00;;;23.50
12061;BMP180;6091;51.432;6.880;2023-11-19T03:43:44;100059.00;;;23.50
12061;BMP180;6091;51.432;6.880;2023-11-19T03:46:21;100064.00;;;23.50
12061;BMP180;6091;51.432;6.880;2023-11-19T03:48:49;100066.00;;;23.50
12061;BMP180;6091;51.432;6.880;2023-11-19T03:51:17;100058.00;;;23.50
12061;BMP180;6091;51.432;6.880;2023-11-19T03:53:47;100064.00;;;23.50
12061;BMP180;6091;51.432;6.880;2023-11-19T03:56:14;100073.00;;;23.50
12061;BMP180;6091;51.432;6.880;2023-11-19T03:58:41;100076.00;;;23.50
12061;BMP180;6091;51.432;6.880;2023-11-19T04:01:12;100067.00;;;23.50
12061;BMP180;6091;51.432;6.880;2023-11-19T04:03:42;100069.00;;;23.50
12061;BMP180;6091;51.432;6.880;2023-11-19T04:06:12;100075.00;;;23.50
12061;BMP180;6091;51.432;6.880;2023-11-19T04:08:39;100074.00;;;23.40
12061;BMP180;6091;51.432;6.880;2023-11-19T04:11:07;100069.00;;;23.50
12061;BMP180;6091;51.432;6.880;2023-11-19T04:13:35;100083.00;;;23.40
12061;BMP180;6091;51.432;6.880;2023-11-19T04:16:02;100075.00;;;23.40
12061;BMP180;6091;51.432;6.880;2023-11-19T04:18:30;100067.00;;;23.40
12061;BMP180;6091;51.432;6.880;2023-11-19T04:21:01;100068.00;;;23.40
12061;BMP180;6091;51.432;6.880;2023-11-19T04:23:28;100066.00;;;23.40
12061;BMP180;6091;51.432;6.880;2023-11-19T04:25:55;100070.00;;;23.40
12061;BMP180;6091;51.432;6.880;2023-11-19T04:28:37;100066.00;;;23.40
12061;BMP180;6091;51.432;6.880;2023-11-19T04:31:04;100074.00;;;23.40
12061;BMP180;6091;51.432;6.880;2023-11-19T04:33:33;100086.00;;;23.40
12061;BMP180;6091;51.432;6.880;2023-11-19T04:36:00;100087.00;;;23.40
12061;BMP180;6091;51.432;6.880;2023-11-19T04:38:27;100088.00;;;23.40
12061;BMP180;6091;51.432;6.880;2023-11-19T04:40:54;100094.00;;;23.40
12061;BMP180;6091;51.432;6.880;2023-11-19T04:43:24;100089.00;;;23.40
12061;BMP180;6091;51.432;6.880;2023-11-19T04:45:51;100088.00;;;23.40
12061;BMP180;6091;51.432;6.880;2023-11-19T04:48:19;100090.00;;;23.40
12061;BMP180;6091;51.432;6.880;2023-11-19T04:50:46;100083.00;;;23.40
12061;BMP180;6091;51.432;6.880;2023-11-19T04:53:13;100098.00;;;23.40
12061;BMP180;6091;51.432;6.880;2023-11-19T04:55:41;100094.00;;;23.40
12061;BMP180;6091;51.432;6.880;2023-11-19T04:58:08;100103.00;;;23.40
12061;BMP180;6091;51.432;6.880;2023-11-19T05:00:35;100106.00;;;23.30
12061;BMP180;6091;51.432;6.880;2023-11-19T05:03:02;100105.00;;;23.30
12061;BMP180;6091;51.432;6.880;2023-11-19T05:05:29;100099.00;;;23.30
12061;BMP180;6091;51.432;6.880;2023-11-19T05:07:59;100099.00;;;23.30
12061;BMP180;6091;51.432;6.880;2023-11-19T05:10:26;100094.00;;;23.30
12061;BMP180;6091;51.432;6.880;2023-11-19T05:12:53;100099.00;;;23.40
12061;BMP180;6091;51.432;6.880;2023-11-19T05:15:23;100095.00;;;23.40
12061;BMP180;6091;51.432;6.880;2023-11-19T05:17:51;100104.00;;;23.40
12061;BMP180;6091;51.432;6.880;2023-11-19T05:20:18;100100.00;;;23.40
12061;BMP180;6091;51.432;6.880;2023-11-19T05:22:45;100099.00;;;23.50
12061;BMP180;6091;51.432;6.880;2023-11-19T05:25:12;100099.00;;;23.50
12061;BMP180;6091;51.432;6.880;2023-11-19T05:27:40;100111.00;;;23.50
12061;BMP180;6091;51.432;6.880;2023-11-19T05:30:08;100102.00;;;23.60
12061;BMP180;6091;51.432;6.880;2023-11-19T05:32:38;100096.00;;;23.60
12061;BMP180;6091;51.432;6.880;2023-11-19T05:35:07;100097.00;;;23.60
12061;BMP180;6091;51.432;6.880;2023-11-19T05:37:35;100099.00;;;23.70
12061;BMP180;6091;51.432;6.880;2023-11-19T05:40:02;100100.00;;;23.70
12061;BMP180;6091;51.432;6.880;2023-11-19T05:42:31;100103.00;;;23.70
12061;BMP180;6091;51.432;6.880;2023-11-19T05:44:58;100109.00;;;23.80
12061;BMP180;6091;51.432;6.880;2023-11-19T05:47:27;100098.00;;;23.80
12061;BMP180;6091;51.432;6.880;2023-11-19T05:49:54;100111.00;;;23.80
12061;BMP180;6091;51.432;6.880;2023-11-19T05:52:21;100102.00;;;23.80
12061;BMP180;6091;51.432;6.880;2023-11-19T05:54:50;100107.00;;;23.90
12061;BMP180;6091;51.432;6.880;2023-11-19T05:57:19;100111.00;;;23.90
12061;BMP180;6091;51.432;6.880;2023-11-19T05:59:52;100110.00;;;23.90
12061;BMP180;6091;51.432;6.880;2023-11-19T06:02:20;100109.00;;;23.90
12061;BMP180;6091;51.432;6.880;2023-11-19T06:04:48;100111.00;;;24.00
12061;BMP180;6091;51.432;6.880;2023-11-19T06:07:16;100113.00;;;24.00
12061;BMP180;6091;51.432;6.880;2023-11-19T06:09:43;100114.00;;;24.00
12061;BMP180;6091;51.432;6.880;2023-11-19T06:12:10;100098.00;;;24.00
12061;BMP180;6091;51.432;6.880;2023-11-19T06:14:37;100106.00;;;24.00
12061;BMP180;6091;51.432;6.880;2023-11-19T06:17:04;100104.00;;;24.00
12061;BMP180;6091;51.432;6.880;2023-11-19T06:19:32;100109.00;;;24.00
12061;BMP180;6091;51.432;6.880;2023-11-19T06:22:00;100109.00;;;24.10
12061;BMP180;6091;51.432;6.880;2023-11-19T06:24:27;100105.00;;;24.10
12061;BMP180;6091;51.432;6.880;2023-11-19T06:26:54;100100.00;;;24.10
12061;BMP180;6091;51.432;6.880;2023-11-19T06:29:21;100101.00;;;24.10
12061;BMP180;6091;51.432;6.880;2023-11-19T06:31:48;100101.00;;;24.10
12061;BMP180;6091;51.432;6.880;2023-11-19T06:34:15;100094.00;;;24.10
12061;BMP180;6091;51.432;6.880;2023-11-19T06:36:43;100109.00;;;24.10
12061;BMP180;6091;51.432;6.880;2023-11-19T06:39:12;100105.00;;;24.10
12061;BMP180;6091;51.432;6.880;2023-11-19T06:41:44;100113.00;;;24.10
12061;BMP180;6091;51.432;6.880;2023-11-19T06:44:11;100122.00;;;24.10
12061;BMP180;6091;51.432;6.880;2023-11-19T06:46:39;100117.00;;;24.10
12061;BMP180;6091;51.432;6.880;2023-11-19T06:49:06;100127.00;;;24.10
12061;BMP180;6091;51.432;6.880;2023-11-19T06:51:35;100141.00;;;24.10
12061;BMP180;6091;51.432;6.880;2023-11-19T06:54:02;100139.00;;;24.10
12061;BMP180;6091;51.432;6.880;2023-11-19T06:56:29;100136.00;;;24.10
12061;BMP180;6091;51.432;6.880;2023-11-19T06:58:56;100145.00;;;24.10
12061;BMP180;6091;51.432;6.880;2023-11-19T07:01:23;100148.00;;;24.10
12061;BMP180;6091;51.432;6.880;2023-11-19T07:03:50;100143.00;;;24.00
12061;BMP180;6091;51.432;6.880;2023-11-19T07:06:20;100145.00;;;24.10
12061;BMP180;6091;51.432;6.880;2023-11-19T07:09:02;100147.00;;;24.10
12061;BMP180;6091;51.432;6.880;2023-11-19T07:11:41;100145.00;;;24.10
12061;BMP180;6091;51.432;6.880;2023-11-19T07:14:08;100140.00;;;24.00
12061;BMP180;6091;51.432;6.880;2023-11-19T07:16:36;100151.00;;;24.10
12061;BMP180;6091;51.432;6.880;2023-11-19T07:19:07;100143.00;;;24.00
12061;BMP180;6091;51.432;6.880;2023-11-19T07:21:34;100165.00;;;24.00
12061;BMP180;6091;51.432;6.880;2023-11-19T07:24:05;100164.00;;;24.00
12061;BMP180;6091;51.432;6.880;2023-11-19T07:26:32;100159.00;;;24.00
12061;BMP180;6091;51.432;6.880;2023-11-19T07:28:59;100161.00;;;24.00
12061;BMP180;6091;51.432;6.880;2023-11-19T07:31:27;100167.00;;;24.10
12061;BMP180;6091;51.432;6.880;2023-11-19T07:33:54;100172.00;;;24.10
12061;BMP180;6091;51.432;6.880;2023-11-19T07:36:22;100184.00;;;24.00
12061;BMP180;6091;51.432;6.880;2023-11-19T07:38:49;100185.00;;;24.10
12061;BMP180;6091;51.432;6.880;2023-11-19T07:41:17;100183.00;;;24.10
12061;BMP180;6091;51.432;6.880;2023-11-19T07:43:44;100189.00;;;24.10
12061;BMP180;6091;51.432;6.880;2023-11-19T07:46:13;100186.00;;;24.10
12061;BMP180;6091;51.432;6.880;2023-11-19T07:48:40;100192.00;;;24.10
12061;BMP180;6091;51.432;6.880;2023-11-19T07:51:11;100201.00;;;24.10
12061;BMP180;6091;51.432;6.880;2023-11-19T07:53:42;100198.00;;;24.10
12061;BMP180;6091;51.432;6.880;2023-11-19T07:56:09;100197.00;;;24.10
12061;BMP180;6091;51.432;6.880;2023-11-19T07:58:37;100199.00;;;24.10
12061;BMP180;6091;51.432;6.880;2023-11-19T08:01:05;100207.00;;;24.10
12061;BMP180;6091;51.432;6.880;2023-11-19T08:03:32;100203.00;;;24.10
12061;BMP180;6091;51.432;6.880;2023-11-19T08:06:03;100210.00;;;24.10
12061;BMP180;6091;51.432;6.880;2023-11-19T08:08:33;100216.00;;;24.10
12061;BMP180;6091;51.432;6.880;2023-11-19T08:11:01;100219.00;;;24.10
12061;BMP180;6091;51.432;6.880;2023-11-19T08:13:28;100203.00;;;24.10
12061;BMP180;6091;51.432;6.880;2023-11-19T08:15:55;100214.00;;;24.10
12061;BMP180;6091;51.432;6.880;2023-11-19T08:18:23;100217.00;;;24.10
12061;BMP180;6091;51.432;6.880;2023-11-19T08:20:51;100222.00;;;24.20
12061;BMP180;6091;51.432;6.880;2023-11-19T08:23:20;100224.00;;;24.20
12061;BMP180;6091;51.432;6.880;2023-11-19T08:25:48;100229.00;;;24.10
12061;BMP180;6091;51.432;6.880;2023-11-19T08:28:15;100226.00;;;24.20
12061;BMP180;6091;51.432;6.880;2023-11-19T08:30:42;100228.00;;;24.20
12061;BMP180;6091;51.432;6.880;2023-11-19T08:33:11;100222.00;;;24.20
12061;BMP180;6091;51.432;6.880;2023-11-19T08:35:38;100222.00;;;24.20
12061;BMP180;6091;51.432;6.880;2023-11-19T08:38:05;100220.00;;;24.20
12061;BMP180;6091;51.432;6.880;2023-11-19T08:40:33;100221.00;;;24.20
12061;BMP180;6091;51.432;6.880;2023-11-19T08:43:01;100221.00;;;24.20
12061;BMP180;6091;51.432;6.880;2023-11-19T08:45:28;100222.00;;;24.20
12061;BMP180;6091;51.432;6.880;2023-11-19T08:47:55;100219.00;;;24.20
12061;BMP180;6091;51.432;6.880;2023-11-19T08:50:23;100219.00;;;24.20
12061;BMP180;6091;51.432;6.880;2023-11-19T08:52:50;100229.00;;;24.30
12061;BMP180;6091;51.432;6.880;2023-11-19T08:55:18;100217.00;;;24.30
12061;BMP180;6091;51.432;6.880;2023-11-19T08:57:45;100220.00;;;24.30
12061;BMP180;6091;51.432;6.880;2023-11-19T09:00:14;100218.00;;;24.30
12061;BMP180;6091;51.432;6.880;2023-11-19T09:02:41;100225.00;;;24.30
12061;BMP180;6091;51.432;6.880;2023-11-19T09:05:11;100227.00;;;24.30
12061;BMP180;6091;51.432;6.880;2023-11-19T09:07:40;100233.00;;;24.30
12061;BMP180;6091;51.432;6.880;2023-11-19T09:10:08;100225.00;;;24.30
12061;BMP180;6091;51.432;6.880;2023-11-19T09:12:35;100226.00;;;24.30
12061;BMP180;6091;51.432;6.880;2023-11-19T09:15:03;100236.00;;;24.30
12061;BMP180;6091;51.432;6.880;2023-11-19T09:17:30;100228.00;;;24.40
12061;BMP180;6091;51.432;6.880;2023-11-19T09:19:58;100222.00;;;24.40
12061;BMP180;6091;51.432;6.880;2023-11-19T09:22:25;100224.00;;;24.40
12061;BMP180;6091;51.432;6.880;2023-11-19T09:24:52;100222.00;;;24.40
12061;BMP180;6091;51.432;6.880;2023-11-19T09:27:19;100217.00;;;24.40
12061;BMP180;6091;51.432;6.880;2023-11-19T09:29:48;100215.00;;;24.40
12061;BMP180;6091;51.432;6.880;2023-11-19T09:32:16;100209.00;;;24.40
12061;BMP180;6091;51.432;6.880;2023-11-19T09:34:43;100217.00;;;24.40
12061;BMP180;6091;51.432;6.880;2023-11-19T09:37:11;100225.00;;;24.40
12061;BMP180;6091;51.432;6.880;2023-11-19T09:39:42;100221.00;;;24.40
12061;BMP180;6091;51.432;6.880;2023-11-19T09:42:12;100223.00;;;24.40
12061;BMP180;6091;51.432;6.880;2023-11-19T09:44:42;100229.00;;;24.40
12061;BMP180;6091;51.432;6.880;2023-11-19T09:47:11;100222.00;;;24.40
12061;BMP180;6091;51.432;6.880;2023-11-19T09:49:40;100221.00;;;24.40
12061;BMP180;6091;51.432;6.880;2023-11-19T09:52:07;100237.00;;;24.40
12061;BMP180;6091;51.432;6.880;2023-11-19T09:54:34;100226.00;;;24.50
12061;BMP180;6091;51.432;6.880;2023-11-19T09:57:04;100231.00;;;24.50
12061;BMP180;6091;51.432;6.880;2023-11-19T09:59:36;100230.00;;;24.50
12061;BMP180;6091;51.432;6.880;2023-11-19T10:02:07;100235.00;;;24.50
12061;BMP180;6091;51.432;6.880;2023-11-19T10:04:38;100229.00;;;24.50
12061;BMP180;6091;51.432;6.880;2023-11-19T10:07:06;100222.00;;;24.50
12061;BMP180;6091;51.432;6.880;2023-11-19T10:09:34;100221.00;;;24.50
12061;BMP180;6091;51.432;6.880;2023-11-19T10:12:01;100222.00;;;24.50
12061;BMP180;6091;51.432;6.880;2023-11-19T10:14:30;100222.00;;;24.50
12061;BMP180;6091;51.432;6.880;2023-11-19T10:16:58;100228.00;;;24.50
12061;BMP180;6091;51.432;6.880;2023-11-19T10:19:26;100227.00;;;24.50
12061;BMP180;6091;51.432;6.880;2023-11-19T10:21:54;100228.00;;;24.50
12061;BMP180;6091;51.432;6.880;2023-11-19T10:24:34;100216.00;;;24.50
12061;BMP180;6091;51.432;6.880;2023-11-19T10:27:08;100230.00;;;24.50
12061;BMP180;6091;51.432;6.880;2023-11-19T10:29:39;100218.00;;;24.50
12061;BMP180;6091;51.432;6.880;2023-11-19T10:32:06;100225.00;;;24.50
12061;BMP180;6091;51.432;6.880;2023-11-19T10:35:04;100204.00;;;24.50
12061;BMP180;6091;51.432;6.880;2023-11-19T10:37:33;100209.00;;;24.50
12061;BMP180;6091;51.432;6.880;2023-11-19T10:40:03;100221.00;;;24.50
12061;BMP180;6091;51.432;6.880;2023-11-19T10:42:33;100206.00;;;24.50
12061;BMP180;6091;51.432;6.880;2023-11-19T10:45:01;100211.00;;;24.50
12061;BMP180;6091;51.432;6.880;2023-11-19T10:47:29;100211.00;;;24.50
12061;BMP180;6091;51.432;6.880;2023-11-19T10:50:01;100211.00;;;24.50
12061;BMP180;6091;51.432;6.880;2023-11-19T10:52:28;100206.00;;;24.50
12061;BMP180;6091;51.432;6.880;2023-11-19T10:55:02;100199.00;;;24.50
12061;BMP180;6091;51.432;6.880;2023-11-19T10:57:36;100204.00;;;24.60
12061;BMP180;6091;51.432;6.880;2023-11-19T11:00:05;100194.00;;;24.60
12061;BMP180;6091;51.432;6.880;2023-11-19T11:02:45;100197.00;;;24.60
12061;BMP180;6091;51.432;6.880;2023-11-19T11:05:16;100196.00;;;24.60
12061;BMP180;6091;51.432;6.880;2023-11-19T11:07:44;100196.00;;;24.60
12061;BMP180;6091;51.432;6.880;2023-11-19T11:10:14;100199.00;;;24.70
12061;BMP180;6091;51.432;6.880;2023-11-19T11:12:45;100199.00;;;24.70
12061;BMP180;6091;51.432;6.880;2023-11-19T11:15:14;100180.00;;;24.70
12061;BMP180;6091;51.432;6.880;2023-11-19T11:17:44;100197.00;;;24.70
12061;BMP180;6091;51.432;6.880;2023-11-19T11:20:13;100191.00;;;24.70
12061;BMP180;6091;51.432;6.880;2023-11-19T11:26:25;100189.00;;;24.70
12061;BMP180;6091;51.432;6.880;2023-11-19T11:37:50;100186.00;;;25.00
12061;BMP180;6091;51.432;6.880;2023-11-19T11:40:20;100190.00;;;25.10
12061;BMP180;6091;51.432;6.880;2023-11-19T11:42:50;100182.00;;;25.30
12061;BMP180;6091;51.432;6.880;2023-11-19T11:45:48;100175.00;;;25.40
12061;BMP180;6091;51.432;6.880;2023-11-19T11:48:19;100175.00;;;25.50
12061;BMP180;6091;51.432;6.880;2023-11-19T11:50:56;100175.00;;;25.60
12061;BMP180;6091;51.432;6.880;2023-11-19T11:53:26;100176.00;;;25.70
12061;BMP180;6091;51.432;6.880;2023-11-19T11:55:55;100168.00;;;25.80
12061;BMP180;6091;51.432;6.880;2023-11-19T11:58:32;100160.00;;;25.90
12061;BMP180;6091;51.432;6.880;2023-11-19T12:01:03;100167.00;;;26.10
12061;BMP180;6091;51.432;6.880;2023-11-19T12:03:33;100162.00;;;26.30
12061;BMP180;6091;51.432;6.880;2023-11-19T12:06:01;100170.00;;;26.40
12061;BMP180;6091;51.432;6.880;2023-11-19T12:08:30;100163.00;;;26.50
12061;BMP180;6091;51.432;6.880;2023-11-19T12:10:58;100166.00;;;26.50
12061;BMP180;6091;51.432;6.880;2023-11-19T12:13:53;100165.00;;;26.60
12061;BMP180;6091;51.432;6.880;2023-11-19T12:16:23;100168.00;;;26.60
12061;BMP180;6091;51.432;6.880;2023-11-19T12:18:52;100167.00;;;26.60
12061;BMP180;6091;51.432;6.880;2023-11-19T12:21:31;100154.00;;;26.60
12061;BMP180;6091;51.432;6.880;2023-11-19T12:24:00;100155.00;;;26.50
12061;BMP180;6091;51.432;6.880;2023-11-19T12:26:37;100151.00;;;26.50
12061;BMP180;6091;51.432;6.880;2023-11-19T12:29:06;100148.00;;;26.50
12061;BMP180;6091;51.432;6.880;2023-11-19T12:31:36;100142.00;;;26.40
12061;BMP180;6091;51.432;6.880;2023-11-19T12:34:07;100142.00;;;26.40
12061;BMP180;6091;51.432;6.880;2023-11-19T12:36:40;100135.00;;;26.40
12061;BMP180;6091;51.432;6.880;2023-11-19T12:39:09;100137.00;;;26.40
12061;BMP180;6091;51.432;6.880;2023-11-19T12:41:51;100123.00;;;26.30
12061;BMP180;6091;51.432;6.880;2023-11-19T12:44:19;100124.00;;;26.30
12061;BMP180;6091;51.432;6.880;2023-11-19T12:47:07;100120.00;;;26.30
12061;BMP180;6091;51.432;6.880;2023-11-19T12:49:35;100123.00;;;26.20
12061;BMP180;6091;51.432;6.880;2023-11-19T12:52:12;100137.00;;;26.20
12061;BMP180;6091;51.432;6.880;2023-11-19T12:54:42;100149.00;;;26.20
12061;BMP180;6091;51.432;6.880;2023-11-19T12:57:09;100133.00;;;26.20
12061;BMP180;6091;51.432;6.880;2023-11-19T12:59:37;100148.00;;;26.20
12061;BMP180;6091;51.432;6.880;2023-11-19T13:02:05;100140.00;;;26.20
12061;BMP180;6091;51.432;6.880;2023-11-19T13:04:34;100158.00;;;26.20
12061;BMP180;6091;51.432;6.880;2023-11-19T13:07:02;100167.00;;;26.10
12061;BMP180;6091;51.432;6.880;2023-11-19T13:09:33;100168.00;;;26.10
12061;BMP180;6091;51.432;6.880;2023-11-19T13:12:14;100170.00;;;26.10
12061;BMP180;6091;51.432;6.880;2023-11-19T13:14:42;100159.00;;;26.10
12061;BMP180;6091;51.432;6.880;2023-11-19T13:17:15;100157.00;;;26.10
12061;BMP180;6091;51.432;6.880;2023-11-19T13:19:43;100160.00;;;26.10
12061;BMP180;6091;51.432;6.880;2023-11-19T13:22:13;100164.00;;;26.10
12061;BMP180;6091;51.432;6.880;2023-11-19T13:24:42;100158.00;;;26.20
12061;BMP180;6091;51.432;6.880;2023-11-19T13:27:10;100157.00;;;26.20
12061;BMP180;6091;51.432;6.880;2023-11-19T13:29:37;100153.00;;;26.20
12061;BMP180;6091;51.432;6.880;2023-11-19T13:32:05;100143.00;;;26.20
12061;BMP180;6091;51.432;6.880;2023-11-19T13:34:33;100146.00;;;26.20
12061;BMP180;6091;51.432;6.880;2023-11-19T13:37:00;100147.00;;;26.20
12061;BMP180;6091;51.432;6.880;2023-11-19T13:39:28;100140.00;;;26.20
12061;BMP180;6091;51.432;6.880;2023-11-19T13:41:55;100151.00;;;26.20
12061;BMP180;6091;51.432;6.880;2023-11-19T13:44:27;100139.00;;;26.20
12061;BMP180;6091;51.432;6.880;2023-11-19T13:46:55;100144.00;;;26.10
12061;BMP180;6091;51.432;6.880;2023-11-19T13:49:22;100135.00;;;26.10
12061;BMP180;6091;51.432;6.880;2023-11-19T13:51:51;100138.00;;;26.10
12061;BMP180;6091;51.432;6.880;2023-11-19T13:54:21;100130.00;;;26.10
12061;BMP180;6091;51.432;6.880;2023-11-19T13:56:50;100128.00;;;26.10
12061;BMP180;6091;51.432;6.880;2023-11-19T13:59:23;100126.00;;;26.10
12061;BMP180;6091;51.432;6.880;2023-11-19T14:01:51;100133.00;;;26.10
12061;BMP180;6091;51.432;6.880;2023-11-19T14:04:19;100127.00;;;26.10
12061;BMP180;6091;51.432;6.880;2023-11-19T14:06:47;100126.00;;;26.10
12061;BMP180;6091;51.432;6.880;2023-11-19T14:09:15;100132.00;;;26.10
12061;BMP180;6091;51.432;6.880;2023-11-19T14:11:43;100136.00;;;26.10
12061;BMP180;6091;51.432;6.880;2023-11-19T14:14:10;100127.00;;;26.10
12061;BMP180;6091;51.432;6.880;2023-11-19T14:16:38;100132.00;;;26.10
12061;BMP180;6091;51.432;6.880;2023-11-19T14:19:06;100152.00;;;26.10
12061;BMP180;6091;51.432;6.880;2023-11-19T14:21:33;100149.00;;;26.10
12061;BMP180;6091;51.432;6.880;2023-11-19T14:24:01;100129.00;;;26.10
12061;BMP180;6091;51.432;6.880;2023-11-19T14:26:29;100121.00;;;26.10
12061;BMP180;6091;51.432;6.880;2023-11-19T14:28:57;100139.00;;;26.10
12061;BMP180;6091;51.432;6.880;2023-11-19T14:31:28;100140.00;;;26.10